sensor_id;sensor_type;location;lat;lon;timestamp;pressure;altitude;pressure_sealevel;temperature;humidity
81230;BME280;70701;44.452;18.652;2023-12-20T00:01:47;99139.75;;;-0.55;84.37
81230;BME280;70701;44.452;18.652;2023-12-20T00:04:14;99133.06;;;-0.57;85.13
81230;BME280;70701;44.452;18.652;2023-12-20T00:06:39;99139.03;;;-0.52;85.29
81230;BME280;70701;44.452;18.652;2023-12-20T00:09:05;99127.72;;;-0.50;85.55
81230;BME280;70701;44.452;18.652;2023-12-20T00:11:30;99133.84;;;-0.57;85.74
81230;BME280;70701;44.452;18.652;2023-12-20T00:13:56;99123.00;;;-0.89;86.20
81230;BME280;70701;44.452;18.652;2023-12-20T00:16:21;99123.16;;;-0.62;86.51
81230;BME280;70701;44.452;18.652;2023-12-20T00:18:47;99127.41;;;-0.45;85.47
81230;BME280;70701;44.452;18.652;2023-12-20T00:21:13;99123.97;;;-0.42;85.30
81230;BME280;70701;44.452;18.652;2023-12-20T00:23:38;99119.06;;;-0.33;84.75
81230;BME280;70701;44.452;18.652;2023-12-20T00:26:04;99118.44;;;-0.46;85.26
81230;BME280;70701;44.452;18.652;2023-12-20T00:28:29;99129.38;;;-0.46;85.25
81230;BME280;70701;44.452;18.652;2023-12-20T00:30:55;99119.72;;;-0.40;86.41
81230;BME280;70701;44.452;18.652;2023-12-20T00:33:21;99106.31;;;-0.25;85.38
81230;BME280;70701;44.452;18.652;2023-12-20T00:35:46;99113.31;;;-0.28;86.68
81230;BME280;70701;44.452;18.652;2023-12-20T00:38:12;99113.81;;;-0.42;86.79
81230;BME280;70701;44.452;18.652;2023-12-20T00:40:38;99111.31;;;-0.50;87.03
81230;BME280;70701;44.452;18.652;2023-12-20T00:43:03;99107.25;;;-0.56;87.66
81230;BME280;70701;44.452;18.652;2023-12-20T00:45:29;99099.63;;;-0.67;87.70
81230;BME280;70701;44.452;18.652;2023-12-20T00:47:55;99105.09;;;-0.67;87.18
81230;BME280;70701;44.452;18.652;2023-12-20T00:50:20;99098.19;;;-0.80;86.63
81230;BME280;70701;44.452;18.652;2023-12-20T00:52:47;99097.03;;;-0.79;86.88
81230;BME280;70701;44.452;18.652;2023-12-20T00:55:13;99101.78;;;-0.76;86.27
81230;BME280;70701;44.452;18.652;2023-12-20T00:57:39;99103.66;;;-0.80;86.29
81230;BME280;70701;44.452;18.652;2023-12-20T01:00:05;99093.22;;;-0.74;85.84
81230;BME280;70701;44.452;18.652;2023-12-20T01:02:31;99093.84;;;-0.81;85.75
81230;BME280;70701;44.452;18.652;2023-12-20T01:05:15;99078.97;;;-0.84;84.87
81230;BME280;70701;44.452;18.652;2023-12-20T01:08:05;99077.16;;;-0.95;85.60
81230;BME280;70701;44.452;18.652;2023-12-20T01:10:31;99071.09;;;-1.05;85.95
81230;BME280;70701;44.452;18.652;2023-12-20T01:12:57;99076.59;;;-1.21;88.10
81230;BME280;70701;44.452;18.652;2023-12-20T01:15:22;99074.94;;;-0.90;85.98
81230;BME280;70701;44.452;18.652;2023-12-20T01:17:48;99069.31;;;-0.77;84.74
81230;BME280;70701;44.452;18.652;2023-12-20T01:20:14;99074.09;;;-0.74;84.10
81230;BME280;70701;44.452;18.652;2023-12-20T01:22:40;99058.66;;;-0.83;83.97
81230;BME280;70701;44.452;18.652;2023-12-20T01:25:08;99057.09;;;-0.84;84.63
81230;BME280;70701;44.452;18.652;2023-12-20T01:27:34;99057.38;;;-0.69;84.25
81230;BME280;70701;44.452;18.652;2023-12-20T01:29:59;99053.66;;;-0.81;83.66
81230;BME280;70701;44.452;18.652;2023-12-20T01:32:25;99045.94;;;-0.75;83.91
81230;BME280;70701;44.452;18.652;2023-12-20T01:34:50;99035.13;;;-0.87;83.14
81230;BME280;70701;44.452;18.652;2023-12-20T01:37:16;99027.06;;;-0.80;83.43
81230;BME280;70701;44.452;18.652;2023-12-20T01:39:42;99026.84;;;-0.71;83.54
81230;BME280;70701;44.452;18.652;2023-12-20T01:42:07;99034.75;;;-1.05;83.43
81230;BME280;70701;44.452;18.652;2023-12-20T01:44:33;99024.56;;;-0.69;83.42
81230;BME280;70701;44.452;18.652;2023-12-20T01:46:59;99021.69;;;-0.76;83.83
81230;BME280;70701;44.452;18.652;2023-12-20T01:49:25;99019.09;;;-0.69;83.85
81230;BME280;70701;44.452;18.652;2023-12-20T01:51:51;99013.63;;;-0.69;84.69
81230;BME280;70701;44.452;18.652;2023-12-20T01:54:19;99011.78;;;-0.81;84.20
81230;BME280;70701;44.452;18.652;2023-12-20T01:56:46;98998.28;;;-0.93;84.82
81230;BME280;70701;44.452;18.652;2023-12-20T01:59:12;99007.97;;;-0.96;83.65
81230;BME280;70701;44.452;18.652;2023-12-20T02:01:38;99007.91;;;-1.00;83.17
81230;BME280;70701;44.452;18.652;2023-12-20T02:04:03;99003.34;;;-0.95;81.86
81230;BME280;70701;44.452;18.652;2023-12-20T02:06:30;99003.59;;;-1.20;82.33
81230;BME280;70701;44.452;18.652;2023-12-20T02:08:59;99000.28;;;-1.29;82.25
81230;BME280;70701;44.452;18.652;2023-12-20T02:11:25;98989.28;;;-1.33;81.79
81230;BME280;70701;44.452;18.652;2023-12-20T02:13:51;98985.66;;;-1.37;82.31
81230;BME280;70701;44.452;18.652;2023-12-20T02:16:17;98975.19;;;-1.35;81.82
81230;BME280;70701;44.452;18.652;2023-12-20T02:18:43;98967.88;;;-1.47;82.07
81230;BME280;70701;44.452;18.652;2023-12-20T02:21:12;98971.47;;;-1.43;82.25
81230;BME280;70701;44.452;18.652;2023-12-20T02:23:37;98965.81;;;-1.53;81.94
81230;BME280;70701;44.452;18.652;2023-12-20T02:26:04;98958.78;;;-1.35;82.48
81230;BME280;70701;44.452;18.652;2023-12-20T02:28:30;98956.53;;;-1.49;82.51
81230;BME280;70701;44.452;18.652;2023-12-20T02:30:57;98956.53;;;-1.49;82.70
81230;BME280;70701;44.452;18.652;2023-12-20T02:33:22;98955.81;;;-1.46;82.68
81230;BME280;70701;44.452;18.652;2023-12-20T02:35:48;98940.38;;;-1.38;82.50
81230;BME280;70701;44.452;18.652;2023-12-20T02:38:14;98941.66;;;-1.32;82.18
81230;BME280;70701;44.452;18.652;2023-12-20T02:40:39;98937.34;;;-1.33;82.43
81230;BME280;70701;44.452;18.652;2023-12-20T02:43:05;98938.13;;;-1.32;82.35
81230;BME280;70701;44.452;18.652;2023-12-20T02:45:30;98927.13;;;-1.36;82.69
81230;BME280;70701;44.452;18.652;2023-12-20T02:47:56;98943.16;;;-1.15;82.46
81230;BME280;70701;44.452;18.652;2023-12-20T02:50:22;98940.34;;;-1.19;82.03
81230;BME280;70701;44.452;18.652;2023-12-20T02:52:49;98932.81;;;-1.25;81.94
81230;BME280;70701;44.452;18.652;2023-12-20T02:55:15;98927.84;;;-1.39;82.32
81230;BME280;70701;44.452;18.652;2023-12-20T02:57:40;98925.59;;;-1.33;82.26
81230;BME280;70701;44.452;18.652;2023-12-20T03:00:10;98922.75;;;-1.41;82.34
81230;BME280;70701;44.452;18.652;2023-12-20T03:02:36;98903.91;;;-1.46;82.59
81230;BME280;70701;44.452;18.652;2023-12-20T03:05:02;98909.78;;;-1.44;82.33
81230;BME280;70701;44.452;18.652;2023-12-20T03:07:28;98913.38;;;-1.40;82.66
81230;BME280;70701;44.452;18.652;2023-12-20T03:09:54;98895.69;;;-1.46;82.08
81230;BME280;70701;44.452;18.652;2023-12-20T03:12:19;98906.22;;;-1.48;82.25
81230;BME280;70701;44.452;18.652;2023-12-20T03:14:45;98905.63;;;-1.38;82.03
81230;BME280;70701;44.452;18.652;2023-12-20T03:17:11;98909.00;;;-1.44;81.00
81230;BME280;70701;44.452;18.652;2023-12-20T03:19:36;98909.91;;;-1.56;80.38
81230;BME280;70701;44.452;18.652;2023-12-20T03:22:02;98909.72;;;-1.67;81.41
81230;BME280;70701;44.452;18.652;2023-12-20T03:24:28;98908.03;;;-1.71;81.58
81230;BME280;70701;44.452;18.652;2023-12-20T03:26:53;98903.75;;;-1.72;81.86
81230;BME280;70701;44.452;18.652;2023-12-20T03:29:19;98896.97;;;-1.79;81.46
81230;BME280;70701;44.452;18.652;2023-12-20T03:31:44;98887.97;;;-1.79;81.90
81230;BME280;70701;44.452;18.652;2023-12-20T03:34:11;98894.44;;;-1.87;81.78
81230;BME280;70701;44.452;18.652;2023-12-20T03:36:37;98898.66;;;-1.90;82.29
81230;BME280;70701;44.452;18.652;2023-12-20T03:39:03;98893.34;;;-2.02;82.56
81230;BME280;70701;44.452;18.652;2023-12-20T03:41:28;98896.72;;;-2.25;83.62
81230;BME280;70701;44.452;18.652;2023-12-20T03:43:54;98884.34;;;-2.38;84.79
81230;BME280;70701;44.452;18.652;2023-12-20T03:46:20;98879.75;;;-1.99;83.92
81230;BME280;70701;44.452;18.652;2023-12-20T03:48:45;98879.66;;;-2.38;84.83
81230;BME280;70701;44.452;18.652;2023-12-20T03:51:12;98870.50;;;-2.61;85.63
81230;BME280;70701;44.452;18.652;2023-12-20T03:53:38;98868.56;;;-2.77;87.16
81230;BME280;70701;44.452;18.652;2023-12-20T03:56:06;98865.88;;;-2.61;86.74
81230;BME280;70701;44.452;18.652;2023-12-20T03:58:31;98865.09;;;-2.10;85.25
81230;BME280;70701;44.452;18.652;2023-12-20T04:00:57;98860.06;;;-2.08;84.87
81230;BME280;70701;44.452;18.652;2023-12-20T04:03:24;98859.13;;;-1.96;85.25
81230;BME280;70701;44.452;18.652;2023-12-20T04:05:49;98858.59;;;-1.86;82.85
81230;BME280;70701;44.452;18.652;2023-12-20T04:08:15;98861.75;;;-1.84;82.28
81230;BME280;70701;44.452;18.652;2023-12-20T04:10:41;98860.94;;;-1.84;81.51
81230;BME280;70701;44.452;18.652;2023-12-20T04:13:06;98850.41;;;-1.86;81.15
81230;BME280;70701;44.452;18.652;2023-12-20T04:15:32;98857.66;;;-1.74;81.08
81230;BME280;70701;44.452;18.652;2023-12-20T04:17:59;98853.34;;;-1.75;81.28
81230;BME280;70701;44.452;18.652;2023-12-20T04:20:24;98859.03;;;-1.84;81.70
81230;BME280;70701;44.452;18.652;2023-12-20T04:22:50;98860.50;;;-1.86;81.77
81230;BME280;70701;44.452;18.652;2023-12-20T04:25:16;98856.25;;;-2.03;81.90
81230;BME280;70701;44.452;18.652;2023-12-20T04:27:41;98843.34;;;-2.06;82.30
81230;BME280;70701;44.452;18.652;2023-12-20T04:30:07;98847.81;;;-2.14;82.20
81230;BME280;70701;44.452;18.652;2023-12-20T04:32:33;98855.13;;;-2.18;82.90
81230;BME280;70701;44.452;18.652;2023-12-20T04:34:58;98845.47;;;-2.16;82.64
81230;BME280;70701;44.452;18.652;2023-12-20T04:37:24;98838.97;;;-2.27;83.08
81230;BME280;70701;44.452;18.652;2023-12-20T04:39:50;98842.50;;;-2.26;83.19
81230;BME280;70701;44.452;18.652;2023-12-20T04:42:16;98842.31;;;-2.18;83.19
81230;BME280;70701;44.452;18.652;2023-12-20T04:44:41;98840.72;;;-1.99;82.38
81230;BME280;70701;44.452;18.652;2023-12-20T04:47:09;98837.31;;;-1.96;82.06
81230;BME280;70701;44.452;18.652;2023-12-20T04:49:34;98822.28;;;-2.06;81.70
81230;BME280;70701;44.452;18.652;2023-12-20T04:52:00;98836.59;;;-1.93;81.27
81230;BME280;70701;44.452;18.652;2023-12-20T04:54:25;98838.31;;;-2.04;81.13
81230;BME280;70701;44.452;18.652;2023-12-20T04:56:51;98835.50;;;-2.08;81.48
81230;BME280;70701;44.452;18.652;2023-12-20T04:59:17;98840.66;;;-2.03;81.23
81230;BME280;70701;44.452;18.652;2023-12-20T05:01:42;98834.69;;;-2.08;80.68
81230;BME280;70701;44.452;18.652;2023-12-20T05:04:08;98841.47;;;-2.02;80.44
81230;BME280;70701;44.452;18.652;2023-12-20T05:06:33;98834.63;;;-2.12;79.99
81230;BME280;70701;44.452;18.652;2023-12-20T05:08:59;98831.81;;;-2.16;80.02
81230;BME280;70701;44.452;18.652;2023-12-20T05:11:25;98823.91;;;-2.21;80.07
81230;BME280;70701;44.452;18.652;2023-12-20T05:13:50;98829.28;;;-2.24;80.32
81230;BME280;70701;44.452;18.652;2023-12-20T05:16:18;98822.22;;;-2.25;81.37
81230;BME280;70701;44.452;18.652;2023-12-20T05:18:45;98836.25;;;-2.27;81.13
81230;BME280;70701;44.452;18.652;2023-12-20T05:21:10;98832.94;;;-2.36;81.65
81230;BME280;70701;44.452;18.652;2023-12-20T05:23:36;98828.63;;;-2.53;82.44
81230;BME280;70701;44.452;18.652;2023-12-20T05:26:02;98834.09;;;-2.53;82.84
81230;BME280;70701;44.452;18.652;2023-12-20T05:28:28;98832.66;;;-2.47;83.19
81230;BME280;70701;44.452;18.652;2023-12-20T05:30:53;98827.47;;;-2.52;82.45
81230;BME280;70701;44.452;18.652;2023-12-20T05:33:19;98830.81;;;-2.43;83.14
81230;BME280;70701;44.452;18.652;2023-12-20T05:35:45;98835.66;;;-2.52;84.71
81230;BME280;70701;44.452;18.652;2023-12-20T05:38:10;98816.03;;;-2.58;83.22
81230;BME280;70701;44.452;18.652;2023-12-20T05:40:36;98815.19;;;-2.62;83.31
81230;BME280;70701;44.452;18.652;2023-12-20T05:43:02;98820.47;;;-3.01;85.24
81230;BME280;70701;44.452;18.652;2023-12-20T05:45:28;98810.91;;;-2.95;87.33
81230;BME280;70701;44.452;18.652;2023-12-20T05:47:53;98822.22;;;-2.77;85.22
81230;BME280;70701;44.452;18.652;2023-12-20T05:50:19;98822.13;;;-2.64;85.33
81230;BME280;70701;44.452;18.652;2023-12-20T05:52:44;98814.03;;;-2.61;84.65
81230;BME280;70701;44.452;18.652;2023-12-20T05:55:10;98808.91;;;-2.11;83.48
81230;BME280;70701;44.452;18.652;2023-12-20T05:57:35;98801.16;;;-2.09;82.02
81230;BME280;70701;44.452;18.652;2023-12-20T06:00:01;98808.34;;;-2.01;82.28
81230;BME280;70701;44.452;18.652;2023-12-20T06:02:27;98798.28;;;-1.97;81.95
81230;BME280;70701;44.452;18.652;2023-12-20T06:04:53;98796.50;;;-2.44;83.57
81230;BME280;70701;44.452;18.652;2023-12-20T06:07:19;98792.91;;;-2.64;84.91
81230;BME280;70701;44.452;18.652;2023-12-20T06:09:44;98782.75;;;-2.83;85.97
81230;BME280;70701;44.452;18.652;2023-12-20T06:12:10;98796.22;;;-2.39;85.59
81230;BME280;70701;44.452;18.652;2023-12-20T06:14:36;98788.22;;;-2.12;83.87
81230;BME280;70701;44.452;18.652;2023-12-20T06:17:02;98799.66;;;-2.06;82.60
81230;BME280;70701;44.452;18.652;2023-12-20T06:19:28;98793.63;;;-2.16;82.65
81230;BME280;70701;44.452;18.652;2023-12-20T06:21:54;98796.25;;;-2.19;81.97
81230;BME280;70701;44.452;18.652;2023-12-20T06:24:19;98784.19;;;-2.18;81.21
81230;BME280;70701;44.452;18.652;2023-12-20T06:26:45;98790.47;;;-2.33;81.60
81230;BME280;70701;44.452;18.652;2023-12-20T06:29:12;98787.41;;;-2.32;81.59
81230;BME280;70701;44.452;18.652;2023-12-20T06:31:37;98782.66;;;-2.35;81.37
81230;BME280;70701;44.452;18.652;2023-12-20T06:34:03;98786.47;;;-2.40;81.83
81230;BME280;70701;44.452;18.652;2023-12-20T06:36:28;98780.91;;;-2.43;82.42
81230;BME280;70701;44.452;18.652;2023-12-20T06:38:54;98774.38;;;-2.39;82.45
81230;BME280;70701;44.452;18.652;2023-12-20T06:41:20;98777.50;;;-2.40;83.06
81230;BME280;70701;44.452;18.652;2023-12-20T06:43:49;98781.59;;;-2.30;83.39
81230;BME280;70701;44.452;18.652;2023-12-20T06:46:15;98789.44;;;-2.29;82.74
81230;BME280;70701;44.452;18.652;2023-12-20T06:48:42;98784.59;;;-2.36;83.04
81230;BME280;70701;44.452;18.652;2023-12-20T06:51:12;98783.16;;;-2.29;82.74
81230;BME280;70701;44.452;18.652;2023-12-20T06:53:38;98790.47;;;-2.33;82.57
81230;BME280;70701;44.452;18.652;2023-12-20T06:56:03;98793.03;;;-2.41;83.32
81230;BME280;70701;44.452;18.652;2023-12-20T06:58:29;98789.78;;;-2.30;82.99
81230;BME280;70701;44.452;18.652;2023-12-20T07:00:55;98785.53;;;-2.08;82.02
81230;BME280;70701;44.452;18.652;2023-12-20T07:03:20;98789.53;;;-2.06;81.88
81230;BME280;70701;44.452;18.652;2023-12-20T07:05:46;98780.59;;;-2.03;81.17
81230;BME280;70701;44.452;18.652;2023-12-20T07:08:11;98781.06;;;-2.01;81.35
81230;BME280;70701;44.452;18.652;2023-12-20T07:10:39;98767.84;;;-1.99;81.12
81230;BME280;70701;44.452;18.652;2023-12-20T07:13:05;98767.91;;;-1.95;81.45
81230;BME280;70701;44.452;18.652;2023-12-20T07:15:31;98767.53;;;-1.93;81.33
81230;BME280;70701;44.452;18.652;2023-12-20T07:17:57;98780.47;;;-1.90;81.31
81230;BME280;70701;44.452;18.652;2023-12-20T07:20:25;98764.78;;;-1.93;81.00
81230;BME280;70701;44.452;18.652;2023-12-20T07:22:51;98785.88;;;-1.74;80.38
81230;BME280;70701;44.452;18.652;2023-12-20T07:25:16;98782.63;;;-1.80;79.82
81230;BME280;70701;44.452;18.652;2023-12-20T07:27:42;98784.41;;;-1.88;80.18
81230;BME280;70701;44.452;18.652;2023-12-20T07:30:08;98769.13;;;-1.92;80.46
81230;BME280;70701;44.452;18.652;2023-12-20T07:32:34;98778.16;;;-1.88;80.41
81230;BME280;70701;44.452;18.652;2023-12-20T07:34:59;98779.16;;;-1.77;80.39
81230;BME280;70701;44.452;18.652;2023-12-20T07:37:25;98771.66;;;-1.84;80.40
81230;BME280;70701;44.452;18.652;2023-12-20T07:39:51;98776.09;;;-1.76;80.61
81230;BME280;70701;44.452;18.652;2023-12-20T07:42:16;98775.81;;;-1.70;80.46
81230;BME280;70701;44.452;18.652;2023-12-20T07:44:42;98756.81;;;-1.83;80.85
81230;BME280;70701;44.452;18.652;2023-12-20T07:47:08;98760.91;;;-1.73;80.73
81230;BME280;70701;44.452;18.652;2023-12-20T07:49:33;98766.28;;;-1.57;80.48
81230;BME280;70701;44.452;18.652;2023-12-20T07:51:59;98765.06;;;-1.60;81.25
81230;BME280;70701;44.452;18.652;2023-12-20T07:54:24;98767.63;;;-1.47;80.97
81230;BME280;70701;44.452;18.652;2023-12-20T07:56:50;98750.34;;;-1.32;79.97
81230;BME280;70701;44.452;18.652;2023-12-20T07:59:16;98760.31;;;-1.20;80.21
81230;BME280;70701;44.452;18.652;2023-12-20T08:01:43;98763.53;;;-0.91;79.80
81230;BME280;70701;44.452;18.652;2023-12-20T08:04:08;98743.69;;;-0.85;79.33
81230;BME280;70701;44.452;18.652;2023-12-20T08:06:34;98752.59;;;-0.65;79.20
81230;BME280;70701;44.452;18.652;2023-12-20T08:09:00;98758.41;;;-0.40;78.84
81230;BME280;70701;44.452;18.652;2023-12-20T08:11:25;98752.53;;;-0.11;78.52
81230;BME280;70701;44.452;18.652;2023-12-20T08:13:51;98747.78;;;0.16;77.50
81230;BME280;70701;44.452;18.652;2023-12-20T08:16:16;98757.28;;;0.26;77.10
81230;BME280;70701;44.452;18.652;2023-12-20T08:18:43;98751.75;;;0.22;78.07
81230;BME280;70701;44.452;18.652;2023-12-20T08:21:09;98761.16;;;0.21;78.23
81230;BME280;70701;44.452;18.652;2023-12-20T08:23:34;98737.53;;;0.47;77.96
81230;BME280;70701;44.452;18.652;2023-12-20T08:26:07;98752.09;;;0.95;76.51
81230;BME280;70701;44.452;18.652;2023-12-20T08:28:33;98742.03;;;1.10;76.07
81230;BME280;70701;44.452;18.652;2023-12-20T08:30:59;98752.91;;;0.96;76.93
81230;BME280;70701;44.452;18.652;2023-12-20T08:33:24;98745.00;;;0.91;77.63
81230;BME280;70701;44.452;18.652;2023-12-20T08:35:50;98734.06;;;0.94;77.82
81230;BME280;70701;44.452;18.652;2023-12-20T08:38:16;98726.50;;;0.77;78.67
81230;BME280;70701;44.452;18.652;2023-12-20T08:40:43;98731.94;;;0.73;79.57
81230;BME280;70701;44.452;18.652;2023-12-20T08:43:09;98731.97;;;0.77;79.66
81230;BME280;70701;44.452;18.652;2023-12-20T08:45:34;98734.00;;;0.87;80.16
81230;BME280;70701;44.452;18.652;2023-12-20T08:48:00;98737.88;;;0.79;80.36
81230;BME280;70701;44.452;18.652;2023-12-20T08:50:26;98727.78;;;0.90;80.76
81230;BME280;70701;44.452;18.652;2023-12-20T08:52:51;98735.66;;;0.99;80.82
81230;BME280;70701;44.452;18.652;2023-12-20T08:55:17;98738.09;;;1.08;81.10
81230;BME280;70701;44.452;18.652;2023-12-20T08:57:43;98729.91;;;1.11;80.97
81230;BME280;70701;44.452;18.652;2023-12-20T09:00:10;98730.72;;;1.15;81.64
81230;BME280;70701;44.452;18.652;2023-12-20T09:02:35;98736.97;;;1.16;82.22
81230;BME280;70701;44.452;18.652;2023-12-20T09:05:02;98725.59;;;1.14;82.28
81230;BME280;70701;44.452;18.652;2023-12-20T09:07:27;98714.53;;;1.03;84.17
81230;BME280;70701;44.452;18.652;2023-12-20T09:09:56;98731.13;;;1.17;83.27
81230;BME280;70701;44.452;18.652;2023-12-20T09:12:22;98726.34;;;1.07;84.44
81230;BME280;70701;44.452;18.652;2023-12-20T09:14:48;98710.63;;;1.04;85.19
81230;BME280;70701;44.452;18.652;2023-12-20T09:17:15;98701.31;;;1.16;84.30
81230;BME280;70701;44.452;18.652;2023-12-20T09:19:44;98708.09;;;1.33;84.04
81230;BME280;70701;44.452;18.652;2023-12-20T09:22:13;98699.09;;;1.36;84.03
81230;BME280;70701;44.452;18.652;2023-12-20T09:24:38;98688.22;;;1.58;83.51
81230;BME280;70701;44.452;18.652;2023-12-20T09:27:05;98682.84;;;1.79;82.49
81230;BME280;70701;44.452;18.652;2023-12-20T09:29:31;98687.97;;;1.91;81.96
81230;BME280;70701;44.452;18.652;2023-12-20T09:31:57;98682.50;;;1.99;81.94
81230;BME280;70701;44.452;18.652;2023-12-20T09:34:23;98682.19;;;2.14;81.24
81230;BME280;70701;44.452;18.652;2023-12-20T09:36:49;98685.31;;;2.17;81.21
81230;BME280;70701;44.452;18.652;2023-12-20T09:39:15;98671.19;;;2.18;82.73
81230;BME280;70701;44.452;18.652;2023-12-20T09:41:45;98666.53;;;2.33;82.19
81230;BME280;70701;44.452;18.652;2023-12-20T09:44:16;98652.38;;;2.38;82.01
81230;BME280;70701;44.452;18.652;2023-12-20T09:46:45;98656.31;;;2.51;81.64
81230;BME280;70701;44.452;18.652;2023-12-20T09:49:16;98646.13;;;2.59;80.77
81230;BME280;70701;44.452;18.652;2023-12-20T09:51:42;98646.09;;;2.73;81.06
81230;BME280;70701;44.452;18.652;2023-12-20T09:54:09;98636.28;;;2.90;80.41
81230;BME280;70701;44.452;18.652;2023-12-20T09:56:35;98631.94;;;3.07;79.98
81230;BME280;70701;44.452;18.652;2023-12-20T09:59:01;98641.34;;;3.17;79.94
81230;BME280;70701;44.452;18.652;2023-12-20T10:01:27;98622.00;;;3.53;83.73
81230;BME280;70701;44.452;18.652;2023-12-20T10:03:54;98637.84;;;4.12;85.19
81230;BME280;70701;44.452;18.652;2023-12-20T10:06:21;98627.59;;;4.09;81.67
81230;BME280;70701;44.452;18.652;2023-12-20T10:08:46;98623.22;;;4.22;81.24
81230;BME280;70701;44.452;18.652;2023-12-20T10:11:12;98621.31;;;4.08;79.05
81230;BME280;70701;44.452;18.652;2023-12-20T10:13:43;98620.59;;;3.97;79.03
81230;BME280;70701;44.452;18.652;2023-12-20T10:16:08;98617.38;;;4.13;79.44
81230;BME280;70701;44.452;18.652;2023-12-20T10:18:34;98613.47;;;4.03;78.17
81230;BME280;70701;44.452;18.652;2023-12-20T10:21:03;98622.22;;;3.91;78.28
81230;BME280;70701;44.452;18.652;2023-12-20T10:23:29;98617.50;;;3.88;78.73
81230;BME280;70701;44.452;18.652;2023-12-20T10:25:57;98625.75;;;3.88;79.10
81230;BME280;70701;44.452;18.652;2023-12-20T10:28:23;98607.69;;;3.83;78.90
81230;BME280;70701;44.452;18.652;2023-12-20T10:30:53;98610.47;;;3.80;79.17
81230;BME280;70701;44.452;18.652;2023-12-20T10:33:26;98599.84;;;3.75;79.00
81230;BME280;70701;44.452;18.652;2023-12-20T10:35:52;98602.97;;;3.80;79.10
81230;BME280;70701;44.452;18.652;2023-12-20T10:38:18;98598.66;;;3.76;78.90
81230;BME280;70701;44.452;18.652;2023-12-20T10:40:47;98605.00;;;3.65;79.61
81230;BME280;70701;44.452;18.652;2023-12-20T10:43:15;98598.75;;;3.54;79.98
81230;BME280;70701;44.452;18.652;2023-12-20T10:45:42;98590.44;;;3.65;80.22
81230;BME280;70701;44.452;18.652;2023-12-20T10:48:10;98604.56;;;3.74;80.87
81230;BME280;70701;44.452;18.652;2023-12-20T10:50:36;98596.75;;;3.65;80.42
81230;BME280;70701;44.452;18.652;2023-12-20T10:53:04;98590.88;;;3.53;80.66
81230;BME280;70701;44.452;18.652;2023-12-20T10:55:30;98588.88;;;3.64;81.65
81230;BME280;70701;44.452;18.652;2023-12-20T10:58:04;98591.59;;;3.71;80.64
81230;BME280;70701;44.452;18.652;2023-12-20T11:00:45;98592.38;;;3.72;80.66
81230;BME280;70701;44.452;18.652;2023-12-20T11:03:13;98577.88;;;3.60;80.60
81230;BME280;70701;44.452;18.652;2023-12-20T11:06:01;98584.22;;;3.54;80.73
81230;BME280;70701;44.452;18.652;2023-12-20T11:11:12;98582.75;;;3.13;82.92
81230;BME280;70701;44.452;18.652;2023-12-20T11:13:47;98577.66;;;3.11;82.99
81230;BME280;70701;44.452;18.652;2023-12-20T11:16:14;98579.19;;;3.27;82.54
81230;BME280;70701;44.452;18.652;2023-12-20T11:18:40;98574.84;;;3.37;81.93
81230;BME280;70701;44.452;18.652;2023-12-20T11:21:07;98584.25;;;3.43;81.36
81230;BME280;70701;44.452;18.652;2023-12-20T11:23:33;98573.31;;;3.28;82.16
81230;BME280;70701;44.452;18.652;2023-12-20T11:25:59;98577.22;;;3.27;82.19
81230;BME280;70701;44.452;18.652;2023-12-20T11:28:26;98582.72;;;3.35;82.16
81230;BME280;70701;44.452;18.652;2023-12-20T11:30:57;98577.97;;;3.35;82.38
81230;BME280;70701;44.452;18.652;2023-12-20T11:35:55;98568.16;;;3.34;82.63
81230;BME280;70701;44.452;18.652;2023-12-20T11:38:22;98573.69;;;3.34;82.69
81230;BME280;70701;44.452;18.652;2023-12-20T11:40:49;98580.31;;;3.47;83.17
81230;BME280;70701;44.452;18.652;2023-12-20T11:43:36;98579.16;;;3.38;82.68
81230;BME280;70701;44.452;18.652;2023-12-20T11:46:07;98574.81;;;3.47;82.37
81230;BME280;70701;44.452;18.652;2023-12-20T11:48:40;98571.22;;;3.54;81.63
81230;BME280;70701;44.452;18.652;2023-12-20T11:51:10;98564.91;;;3.57;82.02
81230;BME280;70701;44.452;18.652;2023-12-20T11:53:36;98560.94;;;3.62;81.71
81230;BME280;70701;44.452;18.652;2023-12-20T11:56:03;98568.03;;;3.66;81.62
81230;BME280;70701;44.452;18.652;2023-12-20T11:58:29;98564.88;;;3.68;81.22
81230;BME280;70701;44.452;18.652;2023-12-20T12:00:56;98566.41;;;3.69;81.28
81230;BME280;70701;44.452;18.652;2023-12-20T12:03:22;98574.28;;;3.74;81.20
81230;BME280;70701;44.452;18.652;2023-12-20T12:05:49;98576.22;;;3.77;81.53
81230;BME280;70701;44.452;18.652;2023-12-20T12:08:15;98576.63;;;3.79;81.08
81230;BME280;70701;44.452;18.652;2023-12-20T12:10:41;98561.63;;;3.80;81.29
81230;BME280;70701;44.452;18.652;2023-12-20T12:13:06;98571.47;;;3.81;81.34
81230;BME280;70701;44.452;18.652;2023-12-20T12:15:32;98568.97;;;4.05;83.04
81230;BME280;70701;44.452;18.652;2023-12-20T12:17:58;98561.13;;;4.00;82.26
81230;BME280;70701;44.452;18.652;2023-12-20T12:20:24;98552.13;;;3.88;82.18
81230;BME280;70701;44.452;18.652;2023-12-20T12:23:05;98565.06;;;4.02;81.55
81230;BME280;70701;44.452;18.652;2023-12-20T12:25:34;98567.78;;;4.06;81.21
81230;BME280;70701;44.452;18.652;2023-12-20T12:28:01;98557.50;;;4.10;81.27
81230;BME280;70701;44.452;18.652;2023-12-20T12:30:27;98564.97;;;4.17;81.02
81230;BME280;70701;44.452;18.652;2023-12-20T12:32:53;98559.31;;;4.31;80.44
81230;BME280;70701;44.452;18.652;2023-12-20T12:35:20;98558.09;;;4.39;80.02
81230;BME280;70701;44.452;18.652;2023-12-20T12:37:46;98556.44;;;4.49;79.68
81230;BME280;70701;44.452;18.652;2023-12-20T12:40:13;98561.94;;;4.49;79.78
81230;BME280;70701;44.452;18.652;2023-12-20T12:42:40;98556.47;;;4.45;79.96
81230;BME280;70701;44.452;18.652;2023-12-20T12:45:06;98557.97;;;4.50;79.95
81230;BME280;70701;44.452;18.652;2023-12-20T12:47:32;98560.72;;;4.54;80.18
81230;BME280;70701;44.452;18.652;2023-12-20T12:49:58;98551.66;;;4.53;79.91
81230;BME280;70701;44.452;18.652;2023-12-20T12:52:23;98574.75;;;4.70;79.92
81230;BME280;70701;44.452;18.652;2023-12-20T12:54:49;98583.75;;;4.78;79.51